sensor_id;sensor_type;location;lat;lon;timestamp;noise_LAeq;noise_LA_min;noise_LA_max;noise_LA01;noise_LA95
49215;Laerm;45943;53.148;8.204;2023-04-10T00:02:09;42.59;37.92;57.79;;
49215;Laerm;45943;53.148;8.204;2023-04-10T00:04:35;40.82;37.29;44.18;;
49215;Laerm;45943;53.148;8.204;2023-04-10T00:07:01;40.75;36.54;43.64;;
49215;Laerm;45943;53.148;8.204;2023-04-10T00:09:27;40.58;37.05;43.42;;
49215;Laerm;45943;53.148;8.204;2023-04-10T00:11:54;41.05;37.05;46.35;;
49215;Laerm;45943;53.148;8.204;2023-04-10T00:14:21;41.47;37.92;45.57;;
49215;Laerm;45943;53.148;8.204;2023-04-10T00:16:48;41.04;37.72;43.94;;
49215;Laerm;45943;53.148;8.204;2023-04-10T00:19:14;41.17;38.30;44.28;;
49215;Laerm;45943;53.148;8.204;2023-04-10T00:21:40;41.10;36.80;43.89;;
49215;Laerm;45943;53.148;8.204;2023-04-10T00:24:06;47.71;38.48;64.38;;
49215;Laerm;45943;53.148;8.204;2023-04-10T00:26:33;40.75;36.70;45.87;;
49215;Laerm;45943;53.148;8.204;2023-04-10T00:28:59;40.62;37.05;43.25;;
49215;Laerm;45943;53.148;8.204;2023-04-10T00:31:26;40.90;36.80;44.99;;
49215;Laerm;45943;53.148;8.204;2023-04-10T00:33:52;41.14;37.92;44.91;;
49215;Laerm;45943;53.148;8.204;2023-04-10T00:36:18;41.05;37.05;44.79;;
49215;Laerm;45943;53.148;8.204;2023-04-10T00:38:44;40.84;37.29;47.96;;
49215;Laerm;45943;53.148;8.204;2023-04-10T00:41:10;40.34;36.26;43.58;;
49215;Laerm;45943;53.148;8.204;2023-04-10T00:43:36;40.47;36.54;51.41;;
49215;Laerm;45943;53.148;8.204;2023-04-10T00:46:03;40.80;36.54;43.25;;
49215;Laerm;45943;53.148;8.204;2023-04-10T00:48:29;40.69;37.05;45.43;;
49215;Laerm;45943;53.148;8.204;2023-04-10T00:50:56;41.24;37.29;45.29;;
49215;Laerm;45943;53.148;8.204;2023-04-10T00:53:22;48.16;37.92;66.21;;
49215;Laerm;45943;53.148;8.204;2023-04-10T00:55:48;40.83;37.72;44.23;;
49215;Laerm;45943;53.148;8.204;2023-04-10T00:58:15;40.90;36.80;47.96;;
49215;Laerm;45943;53.148;8.204;2023-04-10T01:00:41;41.06;37.51;43.84;;
49215;Laerm;45943;53.148;8.204;2023-04-10T01:03:08;41.31;37.72;47.10;;
49215;Laerm;45943;53.148;8.204;2023-04-10T01:05:40;40.93;36.26;44.50;;
49215;Laerm;45943;53.148;8.204;2023-04-10T01:08:40;40.96;37.05;44.50;;
49215;Laerm;45943;53.148;8.204;2023-04-10T01:11:26;41.09;37.29;46.83;;
49215;Laerm;45943;53.148;8.204;2023-04-10T01:14:15;42.46;37.51;68.46;;
49215;Laerm;45943;53.148;8.204;2023-04-10T01:16:50;41.04;35.29;43.89;;
49215;Laerm;45943;53.148;8.204;2023-04-10T01:21:57;49.33;38.12;64.63;;
49215;Laerm;45943;53.148;8.204;2023-04-10T01:29:51;40.56;35.96;42.95;;
49215;Laerm;45943;53.148;8.204;2023-04-10T01:32:21;40.90;36.70;44.28;;
49215;Laerm;45943;53.148;8.204;2023-04-10T01:34:50;40.54;36.80;43.25;;
49215;Laerm;45943;53.148;8.204;2023-04-10T01:37:26;40.88;36.26;45.71;;
49215;Laerm;45943;53.148;8.204;2023-04-10T01:39:58;40.86;37.51;44.46;;
49215;Laerm;45943;53.148;8.204;2023-04-10T01:42:27;41.07;36.80;44.95;;
49215;Laerm;45943;53.148;8.204;2023-04-10T01:44:56;40.86;36.80;44.91;;
49215;Laerm;45943;53.148;8.204;2023-04-10T01:47:24;41.22;36.80;52.16;;
49215;Laerm;45943;53.148;8.204;2023-04-10T01:49:52;40.76;36.46;52.55;;
49215;Laerm;45943;53.148;8.204;2023-04-10T01:52:20;41.33;36.80;59.65;;
49215;Laerm;45943;53.148;8.204;2023-04-10T01:54:47;40.30;36.26;42.69;;
49215;Laerm;45943;53.148;8.204;2023-04-10T01:57:17;40.74;36.54;43.36;;
49215;Laerm;45943;53.148;8.204;2023-04-10T01:59:43;40.71;35.96;44.46;;
49215;Laerm;45943;53.148;8.204;2023-04-10T02:02:09;40.86;37.72;44.91;;
49215;Laerm;45943;53.148;8.204;2023-04-10T02:04:38;40.71;35.96;44.14;;
49215;Laerm;45943;53.148;8.204;2023-04-10T02:07:17;48.53;36.80;66.43;;
49215;Laerm;45943;53.148;8.204;2023-04-10T02:12:21;43.76;36.80;60.46;;
49215;Laerm;45943;53.148;8.204;2023-04-10T02:14:49;41.32;37.05;44.91;;
49215;Laerm;45943;53.148;8.204;2023-04-10T02:17:19;44.20;35.96;61.59;;
49215;Laerm;45943;53.148;8.204;2023-04-10T02:19:50;41.04;36.54;55.00;;
49215;Laerm;45943;53.148;8.204;2023-04-10T02:22:17;40.54;36.80;43.48;;
49215;Laerm;45943;53.148;8.204;2023-04-10T02:24:44;40.57;36.80;47.44;;
49215;Laerm;45943;53.148;8.204;2023-04-10T02:27:10;40.65;37.16;43.74;;
49215;Laerm;45943;53.148;8.204;2023-04-10T02:29:36;40.70;36.80;45.61;;
49215;Laerm;45943;53.148;8.204;2023-04-10T02:32:02;45.19;37.51;62.84;;
49215;Laerm;45943;53.148;8.204;2023-04-10T02:34:29;47.00;37.72;64.25;;
49215;Laerm;45943;53.148;8.204;2023-04-10T02:36:55;46.22;36.54;61.66;;
49215;Laerm;45943;53.148;8.204;2023-04-10T02:39:21;41.37;36.80;47.33;;
49215;Laerm;45943;53.148;8.204;2023-04-10T02:41:47;44.71;37.51;59.38;;
49215;Laerm;45943;53.148;8.204;2023-04-10T02:44:13;41.89;38.97;49.45;;
49215;Laerm;45943;53.148;8.204;2023-04-10T02:46:39;46.33;37.29;63.66;;
49215;Laerm;45943;53.148;8.204;2023-04-10T02:49:05;41.32;37.51;45.29;;
49215;Laerm;45943;53.148;8.204;2023-04-10T02:51:35;41.48;37.72;46.08;;
49215;Laerm;45943;53.148;8.204;2023-04-10T02:54:02;41.27;37.29;47.40;;
49215;Laerm;45943;53.148;8.204;2023-04-10T02:56:28;41.08;36.54;45.03;;
49215;Laerm;45943;53.148;8.204;2023-04-10T02:58:54;41.66;37.92;44.63;;
49215;Laerm;45943;53.148;8.204;2023-04-10T03:01:20;43.53;36.80;58.69;;
49215;Laerm;45943;53.148;8.204;2023-04-10T03:03:46;41.32;37.72;46.14;;
49215;Laerm;45943;53.148;8.204;2023-04-10T03:06:12;40.73;37.29;43.01;;
49215;Laerm;45943;53.148;8.204;2023-04-10T03:08:38;44.56;38.47;58.46;;
49215;Laerm;45943;53.148;8.204;2023-04-10T03:11:06;44.71;36.26;59.79;;
49215;Laerm;45943;53.148;8.204;2023-04-10T03:13:32;44.55;38.30;60.37;;
49215;Laerm;45943;53.148;8.204;2023-04-10T03:15:58;48.63;38.48;63.92;;
49215;Laerm;45943;53.148;8.204;2023-04-10T03:18:24;44.55;38.65;57.38;;
49215;Laerm;45943;53.148;8.204;2023-04-10T03:20:50;49.16;38.12;63.81;;
49215;Laerm;45943;53.148;8.204;2023-04-10T03:23:16;47.46;38.97;64.51;;
49215;Laerm;45943;53.148;8.204;2023-04-10T03:25:42;44.61;39.12;59.88;;
49215;Laerm;45943;53.148;8.204;2023-04-10T03:28:08;44.54;39.55;58.78;;
49215;Laerm;45943;53.148;8.204;2023-04-10T03:30:34;45.37;38.97;59.08;;
49215;Laerm;45943;53.148;8.204;2023-04-10T03:33:02;49.17;38.65;66.55;;
49215;Laerm;45943;53.148;8.204;2023-04-10T03:35:27;48.66;39.94;69.71;;
49215;Laerm;45943;53.148;8.204;2023-04-10T03:37:53;50.85;39.94;65.26;;
49215;Laerm;45943;53.148;8.204;2023-04-10T03:40:19;47.54;40.18;64.03;;
49215;Laerm;45943;53.148;8.204;2023-04-10T03:42:45;48.93;40.41;66.34;;
49215;Laerm;45943;53.148;8.204;2023-04-10T03:45:12;50.25;40.41;64.35;;
49215;Laerm;45943;53.148;8.204;2023-04-10T03:47:37;50.96;40.06;67.48;;
49215;Laerm;45943;53.148;8.204;2023-04-10T03:50:04;51.73;38.97;67.95;;
49215;Laerm;45943;53.148;8.204;2023-04-10T03:52:30;51.25;40.63;68.23;;
49215;Laerm;45943;53.148;8.204;2023-04-10T03:54:56;52.27;39.81;68.65;;
49215;Laerm;45943;53.148;8.204;2023-04-10T03:57:22;52.22;40.41;66.63;;
49215;Laerm;45943;53.148;8.204;2023-04-10T03:59:48;52.68;40.30;68.08;;
49215;Laerm;45943;53.148;8.204;2023-04-10T04:02:14;52.12;41.13;67.42;;
49215;Laerm;45943;53.148;8.204;2023-04-10T04:04:40;51.69;40.18;67.62;;
49215;Laerm;45943;53.148;8.204;2023-04-10T04:07:06;48.90;40.41;66.77;;
49215;Laerm;45943;53.148;8.204;2023-04-10T04:09:33;47.48;40.18;65.47;;
49215;Laerm;45943;53.148;8.204;2023-04-10T04:11:59;53.88;40.73;75.01;;
49215;Laerm;45943;53.148;8.204;2023-04-10T04:14:25;47.37;40.41;67.34;;
49215;Laerm;45943;53.148;8.204;2023-04-10T04:16:51;51.59;40.63;73.22;;
49215;Laerm;45943;53.148;8.204;2023-04-10T04:19:17;49.66;39.94;66.33;;
49215;Laerm;45943;53.148;8.204;2023-04-10T04:21:43;48.30;39.83;62.81;;
49215;Laerm;45943;53.148;8.204;2023-04-10T04:24:09;47.56;40.06;72.10;;
49215;Laerm;45943;53.148;8.204;2023-04-10T04:26:35;47.83;40.30;61.89;;
49215;Laerm;45943;53.148;8.204;2023-04-10T04:29:01;50.41;40.30;65.05;;
49215;Laerm;45943;53.148;8.204;2023-04-10T04:31:27;49.87;41.22;66.75;;
49215;Laerm;45943;53.148;8.204;2023-04-10T04:33:58;44.14;40.73;57.02;;
49215;Laerm;45943;53.148;8.204;2023-04-10T04:36:24;47.28;39.68;68.67;;
49215;Laerm;45943;53.148;8.204;2023-04-10T04:38:50;50.47;40.93;71.83;;
49215;Laerm;45943;53.148;8.204;2023-04-10T04:41:16;46.75;40.06;63.95;;
49215;Laerm;45943;53.148;8.204;2023-04-10T04:43:42;51.14;41.13;67.48;;
49215;Laerm;45943;53.148;8.204;2023-04-10T04:46:08;46.45;40.06;62.11;;
49215;Laerm;45943;53.148;8.204;2023-04-10T04:48:34;59.14;41.31;71.52;;
49215;Laerm;45943;53.148;8.204;2023-04-10T04:51:00;49.44;41.40;64.23;;
49215;Laerm;45943;53.148;8.204;2023-04-10T04:53:26;46.73;41.22;59.96;;
49215;Laerm;45943;53.148;8.204;2023-04-10T04:55:52;48.17;40.41;70.74;;
49215;Laerm;45943;53.148;8.204;2023-04-10T04:58:18;48.25;39.27;64.67;;
49215;Laerm;45943;53.148;8.204;2023-04-10T05:00:45;45.61;39.12;60.82;;
49215;Laerm;45943;53.148;8.204;2023-04-10T05:03:11;49.59;41.40;66.66;;
49215;Laerm;45943;53.148;8.204;2023-04-10T05:05:37;49.87;40.18;67.05;;
49215;Laerm;45943;53.148;8.204;2023-04-10T05:08:03;43.72;40.18;51.62;;
49215;Laerm;45943;53.148;8.204;2023-04-10T05:10:29;44.81;40.78;58.30;;
49215;Laerm;45943;53.148;8.204;2023-04-10T05:12:55;44.04;40.06;56.28;;
49215;Laerm;45943;53.148;8.204;2023-04-10T05:15:21;43.65;39.41;57.17;;
49215;Laerm;45943;53.148;8.204;2023-04-10T05:17:48;44.14;40.83;56.06;;
49215;Laerm;45943;53.148;8.204;2023-04-10T05:20:16;45.08;39.68;59.12;;
49215;Laerm;45943;53.148;8.204;2023-04-10T05:22:42;50.99;39.94;67.60;;
49215;Laerm;45943;53.148;8.204;2023-04-10T05:25:08;49.97;40.63;64.92;;
49215;Laerm;45943;53.148;8.204;2023-04-10T05:27:34;47.37;40.28;61.72;;
49215;Laerm;45943;53.148;8.204;2023-04-10T05:30:01;47.18;39.94;65.34;;
49215;Laerm;45943;53.148;8.204;2023-04-10T05:32:27;48.60;40.93;62.39;;
49215;Laerm;45943;53.148;8.204;2023-04-10T05:34:53;44.95;41.03;63.17;;
49215;Laerm;45943;53.148;8.204;2023-04-10T05:37:19;46.04;39.94;58.92;;
49215;Laerm;45943;53.148;8.204;2023-04-10T05:39:45;51.09;41.58;65.35;;
49215;Laerm;45943;53.148;8.204;2023-04-10T05:42:11;55.35;41.22;71.31;;
49215;Laerm;45943;53.148;8.204;2023-04-10T05:44:38;50.29;41.98;65.27;;
49215;Laerm;45943;53.148;8.204;2023-04-10T05:47:04;49.50;40.41;66.94;;
49215;Laerm;45943;53.148;8.204;2023-04-10T05:49:30;44.20;40.63;59.17;;
49215;Laerm;45943;53.148;8.204;2023-04-10T05:51:56;44.50;41.03;58.00;;
49215;Laerm;45943;53.148;8.204;2023-04-10T05:54:22;43.33;40.06;54.07;;
49215;Laerm;45943;53.148;8.204;2023-04-10T05:56:48;48.55;41.13;64.80;;
49215;Laerm;45943;53.148;8.204;2023-04-10T05:59:14;46.76;39.71;63.03;;
49215;Laerm;45943;53.148;8.204;2023-04-10T06:01:40;45.51;40.41;59.85;;
49215;Laerm;45943;53.148;8.204;2023-04-10T06:04:06;44.68;41.22;54.51;;
49215;Laerm;45943;53.148;8.204;2023-04-10T06:06:32;48.59;40.93;65.45;;
49215;Laerm;45943;53.148;8.204;2023-04-10T06:08:58;46.25;40.52;60.57;;
49215;Laerm;45943;53.148;8.204;2023-04-10T06:11:24;43.57;40.73;52.16;;
49215;Laerm;45943;53.148;8.204;2023-04-10T06:13:50;52.52;40.41;71.39;;
49215;Laerm;45943;53.148;8.204;2023-04-10T06:16:16;53.98;40.83;67.71;;
49215;Laerm;45943;53.148;8.204;2023-04-10T06:18:43;50.42;40.83;66.37;;
49215;Laerm;45943;53.148;8.204;2023-04-10T06:21:08;54.23;40.93;70.30;;
49215;Laerm;45943;53.148;8.204;2023-04-10T06:23:34;46.14;41.03;60.00;;
49215;Laerm;45943;53.148;8.204;2023-04-10T06:26:02;48.98;41.66;65.96;;
49215;Laerm;45943;53.148;8.204;2023-04-10T06:28:28;47.46;41.49;61.12;;
49215;Laerm;45943;53.148;8.204;2023-04-10T06:30:54;48.38;40.83;63.78;;
49215;Laerm;45943;53.148;8.204;2023-04-10T06:33:20;44.30;41.40;54.37;;
49215;Laerm;45943;53.148;8.204;2023-04-10T06:35:47;47.09;41.03;62.68;;
49215;Laerm;45943;53.148;8.204;2023-04-10T06:38:13;45.11;40.52;58.84;;
49215;Laerm;45943;53.148;8.204;2023-04-10T06:40:42;45.00;41.13;56.83;;
49215;Laerm;45943;53.148;8.204;2023-04-10T06:43:08;56.38;41.31;73.81;;
49215;Laerm;45943;53.148;8.204;2023-04-10T06:45:34;48.08;41.13;63.36;;
49215;Laerm;45943;53.148;8.204;2023-04-10T06:48:00;54.07;41.58;72.31;;
49215;Laerm;45943;53.148;8.204;2023-04-10T06:50:26;52.18;41.66;70.29;;
49215;Laerm;45943;53.148;8.204;2023-04-10T06:52:52;58.82;41.90;68.72;;
49215;Laerm;45943;53.148;8.204;2023-04-10T06:55:20;44.76;40.73;60.27;;
49215;Laerm;45943;53.148;8.204;2023-04-10T06:57:46;47.23;40.63;62.73;;
49215;Laerm;45943;53.148;8.204;2023-04-10T07:00:13;49.42;41.49;64.96;;
49215;Laerm;45943;53.148;8.204;2023-04-10T07:02:39;44.67;41.31;57.45;;
49215;Laerm;45943;53.148;8.204;2023-04-10T07:05:05;50.29;41.40;65.25;;
49215;Laerm;45943;53.148;8.204;2023-04-10T07:07:31;49.20;40.52;64.90;;
49215;Laerm;45943;53.148;8.204;2023-04-10T07:09:57;48.42;40.30;63.64;;
49215;Laerm;45943;53.148;8.204;2023-04-10T07:12:23;44.77;41.66;58.25;;
49215;Laerm;45943;53.148;8.204;2023-04-10T07:14:49;52.22;41.22;68.39;;
49215;Laerm;45943;53.148;8.204;2023-04-10T07:17:15;47.56;41.58;60.97;;
49215;Laerm;45943;53.148;8.204;2023-04-10T07:19:41;50.27;40.52;65.24;;
49215;Laerm;45943;53.148;8.204;2023-04-10T07:22:07;57.24;41.40;70.63;;
49215;Laerm;45943;53.148;8.204;2023-04-10T07:24:33;50.52;39.94;66.63;;
49215;Laerm;45943;53.148;8.204;2023-04-10T07:26:59;44.02;41.03;58.53;;
49215;Laerm;45943;53.148;8.204;2023-04-10T07:29:26;44.12;40.06;61.00;;
49215;Laerm;45943;53.148;8.204;2023-04-10T07:31:52;46.84;41.03;62.07;;
49215;Laerm;45943;53.148;8.204;2023-04-10T07:34:18;45.27;40.18;58.64;;
49215;Laerm;45943;53.148;8.204;2023-04-10T07:36:44;46.34;40.41;65.55;;
49215;Laerm;45943;53.148;8.204;2023-04-10T07:39:10;55.19;40.93;72.62;;
49215;Laerm;45943;53.148;8.204;2023-04-10T07:41:36;51.79;40.49;70.71;;
49215;Laerm;45943;53.148;8.204;2023-04-10T07:44:02;44.42;38.81;58.71;;
49215;Laerm;45943;53.148;8.204;2023-04-10T07:46:28;43.56;40.93;53.51;;
49215;Laerm;45943;53.148;8.204;2023-04-10T07:48:54;44.49;39.55;60.47;;
49215;Laerm;45943;53.148;8.204;2023-04-10T07:51:20;43.72;40.18;57.03;;
49215;Laerm;45943;53.148;8.204;2023-04-10T07:53:46;48.81;40.83;63.58;;
49215;Laerm;45943;53.148;8.204;2023-04-10T07:56:17;47.83;41.74;65.20;;
49215;Laerm;45943;53.148;8.204;2023-04-10T07:58:44;47.30;41.40;60.08;;
49215;Laerm;45943;53.148;8.204;2023-04-10T08:01:10;44.80;41.03;52.63;;
49215;Laerm;45943;53.148;8.204;2023-04-10T08:03:41;46.24;40.93;60.39;;
49215;Laerm;45943;53.148;8.204;2023-04-10T08:06:08;45.33;40.93;59.09;;
49215;Laerm;45943;53.148;8.204;2023-04-10T08:08:38;47.75;40.63;61.51;;
49215;Laerm;45943;53.148;8.204;2023-04-10T08:11:24;51.29;41.40;69.73;;
49215;Laerm;45943;53.148;8.204;2023-04-10T08:13:54;47.53;39.81;64.14;;
49215;Laerm;45943;53.148;8.204;2023-04-10T08:16:25;46.83;41.03;60.16;;
49215;Laerm;45943;53.148;8.204;2023-04-10T08:18:52;47.59;42.76;64.86;;
49215;Laerm;45943;53.148;8.204;2023-04-10T08:21:20;49.43;43.42;60.61;;
49215;Laerm;45943;53.148;8.204;2023-04-10T08:23:46;56.73;43.31;71.97;;
49215;Laerm;45943;53.148;8.204;2023-04-10T08:26:12;47.67;41.22;66.00;;
49215;Laerm;45943;53.148;8.204;2023-04-10T08:28:38;49.01;40.63;63.54;;
49215;Laerm;45943;53.148;8.204;2023-04-10T08:31:04;47.62;40.30;60.80;;
49215;Laerm;45943;53.148;8.204;2023-04-10T08:33:30;52.13;40.18;69.74;;
49215;Laerm;45943;53.148;8.204;2023-04-10T08:35:56;48.61;41.22;66.40;;
49215;Laerm;45943;53.148;8.204;2023-04-10T08:38:22;53.53;41.13;67.77;;
49215;Laerm;45943;53.148;8.204;2023-04-10T08:40:50;45.07;41.39;55.77;;
49215;Laerm;45943;53.148;8.204;2023-04-10T08:43:16;46.87;40.73;60.74;;
49215;Laerm;45943;53.148;8.204;2023-04-10T08:45:42;51.29;41.31;65.56;;
49215;Laerm;45943;53.148;8.204;2023-04-10T08:48:09;46.54;41.13;61.35;;
49215;Laerm;45943;53.148;8.204;2023-04-10T08:50:40;48.99;40.93;63.43;;
49215;Laerm;45943;53.148;8.204;2023-04-10T08:53:13;50.88;41.82;65.55;;
49215;Laerm;45943;53.148;8.204;2023-04-10T08:55:40;47.79;41.13;60.75;;
49215;Laerm;45943;53.148;8.204;2023-04-10T08:58:07;63.93;41.40;95.23;;
49215;Laerm;45943;53.148;8.204;2023-04-10T09:00:34;51.68;41.22;68.57;;
49215;Laerm;45943;53.148;8.204;2023-04-10T09:03:09;53.33;40.52;68.34;;
49215;Laerm;45943;53.148;8.204;2023-04-10T09:05:39;50.62;41.98;71.12;;
49215;Laerm;45943;53.148;8.204;2023-04-10T09:08:08;46.43;40.30;65.40;;
49215;Laerm;45943;53.148;8.204;2023-04-10T09:10:35;53.79;42.28;70.07;;
49215;Laerm;45943;53.148;8.204;2023-04-10T09:13:01;55.08;42.42;72.42;;
49215;Laerm;45943;53.148;8.204;2023-04-10T09:15:27;48.92;39.81;63.63;;
49215;Laerm;45943;53.148;8.204;2023-04-10T09:18:01;52.15;41.90;72.21;;
49215;Laerm;45943;53.148;8.204;2023-04-10T09:20:29;63.64;42.56;79.61;;
49215;Laerm;45943;53.148;8.204;2023-04-10T09:22:55;52.59;42.42;71.36;;
49215;Laerm;45943;53.148;8.204;2023-04-10T09:25:35;55.58;42.95;72.42;;
49215;Laerm;45943;53.148;8.204;2023-04-10T09:28:03;52.66;42.69;72.05;;
49215;Laerm;45943;53.148;8.204;2023-04-10T09:30:40;53.47;42.63;70.43;;
49215;Laerm;45943;53.148;8.204;2023-04-10T09:33:23;50.24;42.21;69.71;;
49215;Laerm;45943;53.148;8.204;2023-04-10T09:35:49;48.80;41.49;65.27;;
49215;Laerm;45943;53.148;8.204;2023-04-10T09:38:17;48.38;41.22;66.60;;
49215;Laerm;45943;53.148;8.204;2023-04-10T09:40:44;54.48;42.69;76.29;;
49215;Laerm;45943;53.148;8.204;2023-04-10T09:45:51;65.04;46.51;76.22;;
49215;Laerm;45943;53.148;8.204;2023-04-10T09:48:18;52.89;43.19;66.17;;
49215;Laerm;45943;53.148;8.204;2023-04-10T09:50:44;51.11;41.90;68.92;;
49215;Laerm;45943;53.148;8.204;2023-04-10T09:53:15;56.48;43.01;76.56;;
49215;Laerm;45943;53.148;8.204;2023-04-10T09:55:45;54.00;43.13;72.17;;
49215;Laerm;45943;53.148;8.204;2023-04-10T09:58:11;52.42;41.66;71.36;;
49215;Laerm;45943;53.148;8.204;2023-04-10T10:00:42;50.96;42.95;65.25;;
49215;Laerm;45943;53.148;8.204;2023-04-10T10:03:11;51.53;43.31;67.25;;
49215;Laerm;45943;53.148;8.204;2023-04-10T10:05:55;52.68;42.69;70.36;;
49215;Laerm;45943;53.148;8.204;2023-04-10T10:08:23;53.86;44.32;71.01;;
49215;Laerm;45943;53.148;8.204;2023-04-10T10:10:52;53.11;42.49;67.73;;
49215;Laerm;45943;53.148;8.204;2023-04-10T10:13:27;49.44;40.63;65.74;;
49215;Laerm;45943;53.148;8.204;2023-04-10T10:16:20;56.39;43.36;76.59;;
49215;Laerm;45943;53.148;8.204;2023-04-10T10:18:57;47.25;41.82;62.45;;
49215;Laerm;45943;53.148;8.204;2023-04-10T10:21:27;50.47;42.49;64.90;;
49215;Laerm;45943;53.148;8.204;2023-04-10T10:23:57;54.60;41.90;72.21;;
49215;Laerm;45943;53.148;8.204;2023-04-10T10:26:24;51.87;41.40;66.41;;
49215;Laerm;45943;53.148;8.204;2023-04-10T10:28:50;48.32;41.66;63.99;;
49215;Laerm;45943;53.148;8.204;2023-04-10T10:31:20;52.78;42.63;68.50;;
49215;Laerm;45943;53.148;8.204;2023-04-10T10:33:51;49.15;42.82;62.98;;
49215;Laerm;45943;53.148;8.204;2023-04-10T10:36:18;51.99;42.82;70.43;;
49215;Laerm;45943;53.148;8.204;2023-04-10T10:38:59;51.99;42.95;67.76;;
49215;Laerm;45943;53.148;8.204;2023-04-10T10:41:33;54.31;42.35;69.22;;
49215;Laerm;45943;53.148;8.204;2023-04-10T10:44:10;48.09;42.06;62.26;;
49215;Laerm;45943;53.148;8.204;2023-04-10T10:46:48;66.30;41.66;97.62;;
49215;Laerm;45943;53.148;8.204;2023-04-10T10:49:15;47.71;41.58;62.40;;
49215;Laerm;45943;53.148;8.204;2023-04-10T10:51:45;49.57;42.56;66.02;;
49215;Laerm;45943;53.148;8.204;2023-04-10T10:54:28;49.45;42.49;76.73;;
49215;Laerm;45943;53.148;8.204;2023-04-10T10:56:54;49.57;41.98;63.64;;
49215;Laerm;45943;53.148;8.204;2023-04-10T11:02:15;51.58;41.13;71.78;;
49215;Laerm;45943;53.148;8.204;2023-04-10T11:04:43;48.89;41.90;64.50;;
49215;Laerm;45943;53.148;8.204;2023-04-10T11:07:10;54.00;42.69;68.89;;
49215;Laerm;45943;53.148;8.204;2023-04-10T11:09:53;52.43;42.13;70.53;;
49215;Laerm;45943;53.148;8.204;2023-04-10T11:12:21;57.96;42.56;84.04;;
49215;Laerm;45943;53.148;8.204;2023-04-10T11:15:06;51.00;41.58;68.88;;
49215;Laerm;45943;53.148;8.204;2023-04-10T11:17:52;51.03;42.89;75.50;;
49215;Laerm;45943;53.148;8.204;2023-04-10T11:20:20;52.18;42.13;72.58;;
49215;Laerm;45943;53.148;8.204;2023-04-10T11:23:06;51.14;41.58;66.93;;
49215;Laerm;45943;53.148;8.204;2023-04-10T11:25:49;57.13;42.35;85.00;;
49215;Laerm;45943;53.148;8.204;2023-04-10T11:28:35;57.86;43.07;82.56;;
49215;Laerm;45943;53.148;8.204;2023-04-10T11:31:21;57.96;41.82;84.36;;
49215;Laerm;45943;53.148;8.204;2023-04-10T11:33:49;65.26;41.82;94.96;;
49215;Laerm;45943;53.148;8.204;2023-04-10T11:36:16;59.61;42.08;78.41;;
49215;Laerm;45943;53.148;8.204;2023-04-10T11:39:02;57.34;42.69;76.39;;
49215;Laerm;45943;53.148;8.204;2023-04-10T11:41:32;57.75;42.49;89.36;;
49215;Laerm;45943;53.148;8.204;2023-04-10T11:44:05;64.09;43.19;95.32;;
49215;Laerm;45943;53.148;8.204;2023-04-10T11:46:37;54.35;42.76;76.34;;
49215;Laerm;45943;53.148;8.204;2023-04-10T11:49:05;44.87;41.05;58.81;;
49215;Laerm;45943;53.148;8.204;2023-04-10T11:51:32;52.72;42.89;70.72;;
49215;Laerm;45943;53.148;8.204;2023-04-10T11:54:18;54.24;41.22;78.82;;
49215;Laerm;45943;53.148;8.204;2023-04-10T11:57:05;53.63;42.69;69.40;;
49215;Laerm;45943;53.148;8.204;2023-04-10T11:59:36;49.72;41.03;69.74;;
49215;Laerm;45943;53.148;8.204;2023-04-10T12:02:10;60.77;42.82;85.25;;
49215;Laerm;45943;53.148;8.204;2023-04-10T12:04:39;58.79;43.58;82.02;;
49215;Laerm;45943;53.148;8.204;2023-04-10T12:07:06;51.41;42.95;65.40;;
49215;Laerm;45943;53.148;8.204;2023-04-10T12:09:33;51.27;42.21;65.45;;
49215;Laerm;45943;53.148;8.204;2023-04-10T12:12:01;53.33;42.95;70.59;;
49215;Laerm;45943;53.148;8.204;2023-04-10T12:16:59;54.33;43.58;77.28;;
49215;Laerm;45943;53.148;8.204;2023-04-10T12:19:25;54.12;43.48;73.81;;
49215;Laerm;45943;53.148;8.204;2023-04-10T12:21:52;61.84;45.07;75.95;;
49215;Laerm;45943;53.148;8.204;2023-04-10T12:24:44;61.54;44.75;76.41;;
49215;Laerm;45943;53.148;8.204;2023-04-10T12:27:25;50.82;43.31;77.10;;
49215;Laerm;45943;53.148;8.204;2023-04-10T12:30:13;53.14;43.48;71.50;;
49215;Laerm;45943;53.148;8.204;2023-04-10T12:32:39;53.14;43.36;68.66;;
49215;Laerm;45943;53.148;8.204;2023-04-10T12:35:05;48.92;43.36;66.28;;
49215;Laerm;45943;53.148;8.204;2023-04-10T12:37:51;52.09;43.07;64.20;;
49215;Laerm;45943;53.148;8.204;2023-04-10T12:40:19;59.24;44.14;75.67;;
49215;Laerm;45943;53.148;8.204;2023-04-10T12:42:45;58.81;44.91;84.71;;
49215;Laerm;45943;53.148;8.204;2023-04-10T12:45:11;59.13;43.58;75.27;;
49215;Laerm;45943;53.148;8.204;2023-04-10T12:47:44;51.34;42.35;61.80;;
49215;Laerm;45943;53.148;8.204;2023-04-10T12:50:15;51.94;42.21;68.05;;
49215;Laerm;45943;53.148;8.204;2023-04-10T12:52:46;51.75;42.95;65.41;;
49215;Laerm;45943;53.148;8.204;2023-04-10T12:55:32;52.73;42.69;68.86;;
49215;Laerm;45943;53.148;8.204;2023-04-10T12:58:14;53.30;42.21;68.85;;
49215;Laerm;45943;53.148;8.204;2023-04-10T13:00:42;52.39;43.01;68.97;;
49215;Laerm;45943;53.148;8.204;2023-04-10T13:03:08;50.18;43.19;62.73;;
49215;Laerm;45943;53.148;8.204;2023-04-10T13:05:34;55.89;43.58;80.12;;
49215;Laerm;45943;53.148;8.204;2023-04-10T13:08:00;54.41;43.13;74.72;;
49215;Laerm;45943;53.148;8.204;2023-04-10T13:10:26;51.98;41.90;66.41;;
49215;Laerm;45943;53.148;8.204;2023-04-10T13:12:52;52.32;43.19;68.57;;
49215;Laerm;45943;53.148;8.204;2023-04-10T13:15:18;58.40;43.53;80.25;;
49215;Laerm;45943;53.148;8.204;2023-04-10T13:17:47;53.23;43.45;68.36;;
49215;Laerm;45943;53.148;8.204;2023-04-10T13:20:13;54.49;42.82;71.45;;
49215;Laerm;45943;53.148;8.204;2023-04-10T13:22:42;54.58;43.74;67.39;;
49215;Laerm;45943;53.148;8.204;2023-04-10T13:25:50;55.61;43.74;75.86;;
49215;Laerm;45943;53.148;8.204;2023-04-10T13:28:19;51.98;43.53;67.03;;
49215;Laerm;45943;53.148;8.204;2023-04-10T13:30:46;50.60;43.94;62.22;;
49215;Laerm;45943;53.148;8.204;2023-04-10T13:33:12;52.66;43.74;73.35;;
49215;Laerm;45943;53.148;8.204;2023-04-10T13:35:38;53.81;43.58;66.53;;
49215;Laerm;45943;53.148;8.204;2023-04-10T13:38:07;59.97;47.29;78.81;;
49215;Laerm;45943;53.148;8.204;2023-04-10T13:40:34;59.31;43.99;72.71;;
49215;Laerm;45943;53.148;8.204;2023-04-10T13:43:00;51.10;43.42;64.26;;
49215;Laerm;45943;53.148;8.204;2023-04-10T13:45:26;53.98;43.42;68.08;;
49215;Laerm;45943;53.148;8.204;2023-04-10T13:47:52;50.30;42.56;65.65;;
49215;Laerm;45943;53.148;8.204;2023-04-10T13:50:18;49.13;43.01;62.61;;
49215;Laerm;45943;53.148;8.204;2023-04-10T13:52:44;53.84;43.79;72.75;;
49215;Laerm;45943;53.148;8.204;2023-04-10T13:55:13;52.48;42.89;67.67;;
49215;Laerm;45943;53.148;8.204;2023-04-10T13:57:39;49.19;41.98;69.59;;
49215;Laerm;45943;53.148;8.204;2023-04-10T14:00:06;54.24;42.63;75.03;;
49215;Laerm;45943;53.148;8.204;2023-04-10T14:02:33;53.69;43.48;74.38;;
49215;Laerm;45943;53.148;8.204;2023-04-10T14:04:59;51.06;43.07;66.02;;
49215;Laerm;45943;53.148;8.204;2023-04-10T14:07:27;55.98;43.31;73.94;;
49215;Laerm;45943;53.148;8.204;2023-04-10T14:09:53;50.82;43.31;62.16;;
49215;Laerm;45943;53.148;8.204;2023-04-10T14:12:19;54.54;44.09;65.57;;